createdAt,value
2022-08-05T00:00:30.618Z,-268
2022-08-05T00:01:36.922Z,-268
2022-08-05T00:02:42.206Z,-268
2022-08-05T00:03:48.458Z,-268
2022-08-05T00:04:54.728Z,-269
2022-08-05T00:06:01.022Z,-268
2022-08-05T00:07:07.276Z,-268
2022-08-05T00:08:12.578Z,-268
2022-08-05T00:09:18.856Z,-269
2022-08-05T00:10:25.100Z,-268
2022-08-05T00:11:31.378Z,-270
2022-08-05T00:12:37.644Z,-269
2022-08-05T00:13:43.936Z,-268
2022-08-05T00:14:50.180Z,-269
2022-08-05T00:15:56.498Z,-270
2022-08-05T00:17:02.733Z,-270
2022-08-05T00:18:09.027Z,-269
2022-08-05T00:19:15.293Z,-269
2022-08-05T00:20:21.586Z,-269
2022-08-05T00:21:27.813Z,-269
2022-08-05T00:22:33.135Z,-270
2022-08-05T00:23:39.401Z,-271
2022-08-05T00:24:45.661Z,-271
2022-08-05T00:25:51.938Z,-269
2022-08-05T00:26:58.197Z,-271
2022-08-05T00:28:04.475Z,-271
2022-08-05T00:29:10.766Z,-271
2022-08-05T00:30:17.052Z,-269
2022-08-05T00:31:23.302Z,-271
2022-08-05T00:32:29.568Z,-272
2022-08-05T00:33:35.818Z,-272
2022-08-05T00:34:42.117Z,-271
2022-08-05T00:35:48.411Z,-270
2022-08-05T00:36:53.665Z,-271
2022-08-05T00:37:59.942Z,-271
2022-08-05T00:39:06.229Z,-270
2022-08-05T00:40:12.488Z,-271
2022-08-05T00:41:18.748Z,-272
2022-08-05T00:42:25.022Z,-271
2022-08-05T00:43:31.280Z,-271
2022-08-05T00:44:37.567Z,-271
2022-08-05T00:45:43.823Z,-275
2022-08-05T00:46:50.117Z,-271
2022-08-05T00:47:56.402Z,-271
2022-08-05T00:49:02.645Z,-271
2022-08-05T00:50:08.969Z,-271
2022-08-05T00:51:14.204Z,-271
2022-08-05T00:52:20.508Z,-273
2022-08-05T00:53:26.763Z,-271
2022-08-05T00:54:33.041Z,-271
2022-08-05T00:55:39.306Z,-271
2022-08-05T00:56:45.572Z,-271
2022-08-05T00:57:51.828Z,-273
2022-08-05T00:58:58.126Z,-272
2022-08-05T01:00:04.420Z,-271
2022-08-05T01:01:10.648Z,-273
2022-08-05T01:02:16.945Z,-271
2022-08-05T01:03:23.226Z,-272
2022-08-05T01:04:29.464Z,-273
2022-08-05T01:05:34.755Z,-271
2022-08-05T01:06:41.022Z,-274
2022-08-05T01:07:47.287Z,-273
2022-08-05T01:08:53.590Z,-273
2022-08-05T01:09:59.848Z,-273
2022-08-05T01:11:06.108Z,-273
2022-08-05T01:12:12.392Z,-271
2022-08-05T01:13:18.645Z,-272
2022-08-05T01:14:24.945Z,-272
2022-08-05T01:15:31.214Z,-274
2022-08-05T01:16:37.456Z,-274
2022-08-05T01:17:43.731Z,-273
2022-08-05T01:18:50.033Z,-274
2022-08-05T01:19:55.289Z,-273
2022-08-05T01:21:01.597Z,-274
2022-08-05T01:22:07.833Z,-274
2022-08-05T01:23:14.109Z,-273
2022-08-05T01:24:20.382Z,-273
2022-08-05T01:25:26.695Z,-275
2022-08-05T01:26:32.935Z,-272
2022-08-05T01:27:39.227Z,-275
2022-08-05T01:28:45.476Z,-274
2022-08-05T01:29:51.732Z,-274
2022-08-05T01:30:58.045Z,-274
2022-08-05T01:32:04.297Z,-275
2022-08-05T01:33:10.573Z,-275
2022-08-05T01:34:15.846Z,-274
2022-08-05T01:35:22.103Z,-276
2022-08-05T01:36:28.380Z,-275
2022-08-05T01:37:34.688Z,-275
2022-08-05T01:38:40.960Z,-275
2022-08-05T01:39:47.198Z,-274
2022-08-05T01:40:53.489Z,-275
2022-08-05T01:41:59.749Z,-276
2022-08-05T01:43:06.017Z,-276
2022-08-05T01:44:12.306Z,-275
2022-08-05T01:45:18.552Z,-276
2022-08-05T01:46:24.829Z,-276
2022-08-05T01:47:31.094Z,-277
2022-08-05T01:48:36.421Z,-276
2022-08-05T01:49:42.655Z,-275
2022-08-05T01:50:48.928Z,-275
2022-08-05T01:51:55.229Z,-275
2022-08-05T01:53:01.471Z,-275
2022-08-05T01:54:07.741Z,-276
2022-08-05T01:55:14.034Z,-276
2022-08-05T01:56:20.283Z,-277
2022-08-05T01:57:26.560Z,-278
2022-08-05T01:58:32.830Z,-277
2022-08-05T01:59:39.125Z,-275
2022-08-05T02:00:45.413Z,-275
2022-08-05T02:01:51.645Z,-275
2022-08-05T02:02:56.930Z,-276
2022-08-05T02:04:03.212Z,-276
2022-08-05T02:05:09.479Z,-277
2022-08-05T02:06:15.750Z,-275
2022-08-05T02:07:22.020Z,-278
2022-08-05T02:08:28.306Z,-278
2022-08-05T02:09:34.599Z,-278
2022-08-05T02:10:40.877Z,-277
2022-08-05T02:11:47.101Z,-277
2022-08-05T02:12:53.407Z,-278
2022-08-05T02:13:59.666Z,-277
2022-08-05T02:15:05.961Z,-279
2022-08-05T02:16:12.199Z,-280
2022-08-05T02:17:17.483Z,-278
2022-08-05T02:18:23.746Z,-280
2022-08-05T02:19:30.042Z,-278
2022-08-05T02:20:36.340Z,-279
2022-08-05T02:21:42.564Z,-278
2022-08-05T02:22:48.894Z,-278
2022-08-05T02:23:55.125Z,-279
2022-08-05T02:25:01.387Z,-278
2022-08-05T02:26:07.651Z,-279
2022-08-05T02:27:13.915Z,-279
2022-08-05T02:28:20.208Z,-279
2022-08-05T02:29:26.465Z,-280
2022-08-05T02:30:32.754Z,-280
2022-08-05T02:31:38.071Z,-280
2022-08-05T02:32:44.341Z,-280
2022-08-05T02:33:50.593Z,-280
2022-08-05T02:34:56.850Z,-281
2022-08-05T02:36:03.121Z,-281
2022-08-05T02:37:09.381Z,-280
2022-08-05T02:38:15.676Z,-279
2022-08-05T02:39:21.919Z,-280
2022-08-05T02:40:28.245Z,-280
2022-08-05T02:41:34.478Z,-280
2022-08-05T02:42:40.804Z,-281
2022-08-05T02:43:47.022Z,-281
2022-08-05T02:44:53.310Z,-280
2022-08-05T02:45:58.614Z,-282
2022-08-05T02:47:04.854Z,-281
2022-08-05T02:48:11.123Z,-281
2022-08-05T02:49:17.400Z,-281
2022-08-05T02:50:23.692Z,-281
2022-08-05T02:51:29.962Z,-282
2022-08-05T02:52:36.242Z,-280
2022-08-05T02:53:42.516Z,-282
2022-08-05T02:54:48.786Z,-281
2022-08-05T02:55:55.063Z,-281
2022-08-05T02:57:01.331Z,-281
2022-08-05T02:58:07.585Z,-282
2022-08-05T02:59:13.843Z,-281
2022-08-05T03:00:19.145Z,-281
2022-08-05T03:01:25.418Z,-281
2022-08-05T03:02:31.712Z,-281
2022-08-05T03:03:37.961Z,-281
2022-08-05T03:04:44.254Z,-281
2022-08-05T03:05:50.496Z,-281
2022-08-05T03:06:56.761Z,-282
2022-08-05T03:08:03.039Z,-281
2022-08-05T03:09:09.311Z,-281
2022-08-05T03:10:15.610Z,-281
2022-08-05T03:11:21.851Z,-281
2022-08-05T03:12:28.151Z,-282
2022-08-05T03:13:34.395Z,-282
2022-08-05T03:14:39.699Z,-281
2022-08-05T03:15:46.003Z,-282
2022-08-05T03:16:52.241Z,-281
2022-08-05T03:17:58.499Z,-284
2022-08-05T03:19:04.781Z,-282
2022-08-05T03:20:11.044Z,-283
2022-08-05T03:21:17.326Z,-282
2022-08-05T03:22:23.594Z,-283
2022-08-05T03:23:29.856Z,-282
2022-08-05T03:24:36.135Z,-283
2022-08-05T03:25:42.402Z,-284
2022-08-05T03:26:48.725Z,-283
2022-08-05T03:27:54.956Z,-284
2022-08-05T03:29:00.274Z,-284
2022-08-05T03:30:06.524Z,-283
2022-08-05T03:31:12.789Z,-284
2022-08-05T03:32:19.059Z,-283
2022-08-05T03:33:25.356Z,-284
2022-08-05T03:34:31.597Z,-284
2022-08-05T03:35:37.906Z,-284
2022-08-05T03:36:44.178Z,-284
2022-08-05T03:37:50.424Z,-284
2022-08-05T03:38:56.691Z,-283
2022-08-05T03:40:03.768Z,-284
2022-08-05T03:41:09.240Z,-283
2022-08-05T03:42:15.519Z,-286
2022-08-05T03:43:20.817Z,-284
2022-08-05T03:44:27.101Z,-284
2022-08-05T03:45:33.343Z,-284
2022-08-05T03:46:39.638Z,-284
2022-08-05T03:47:45.900Z,-284
2022-08-05T03:48:52.188Z,-283
2022-08-05T03:49:58.465Z,-284
2022-08-05T03:51:03.730Z,-284
2022-08-05T03:52:09.998Z,-284
2022-08-05T03:53:16.276Z,-283
2022-08-05T03:54:22.553Z,-284
2022-08-05T03:55:28.822Z,-284
2022-08-05T03:56:35.123Z,-285
2022-08-05T03:57:41.399Z,-285
2022-08-05T03:58:47.642Z,-285
2022-08-05T03:59:53.909Z,-284
2022-08-05T04:01:00.206Z,-284
2022-08-05T04:02:06.481Z,-285
2022-08-05T04:03:12.750Z,-286
2022-08-05T04:04:19.011Z,-285
2022-08-05T04:05:24.312Z,-285
2022-08-05T04:06:30.560Z,-286
2022-08-05T04:07:36.831Z,-285
2022-08-05T04:08:43.098Z,-286
2022-08-05T04:09:49.372Z,-285
2022-08-05T04:10:55.664Z,-286
2022-08-05T04:12:01.932Z,-285
2022-08-05T04:13:08.206Z,-286
2022-08-05T04:14:14.460Z,-286
2022-08-05T04:15:20.743Z,-286
2022-08-05T04:16:27.009Z,-285
2022-08-05T04:17:33.285Z,-286
2022-08-05T04:18:39.555Z,-286
2022-08-05T04:19:44.850Z,-284
2022-08-05T04:20:51.110Z,-287
2022-08-05T04:21:57.387Z,-285
2022-08-05T04:23:03.681Z,-286
2022-08-05T04:24:09.945Z,-284
2022-08-05T04:25:16.214Z,-287
2022-08-05T04:26:22.481Z,-287
2022-08-05T04:27:28.750Z,-285
2022-08-05T04:28:35.017Z,-285
2022-08-05T04:29:41.292Z,-285
2022-08-05T04:30:47.572Z,-287
2022-08-05T04:31:53.837Z,-286
2022-08-05T04:33:00.117Z,-285
2022-08-05T04:34:05.412Z,-287
2022-08-05T04:35:11.675Z,-285
2022-08-05T04:36:17.943Z,-285
2022-08-05T04:37:24.223Z,-285
2022-08-05T04:38:30.488Z,-286
2022-08-05T04:39:36.768Z,-286
2022-08-05T04:40:42.072Z,-284
2022-08-05T04:41:47.351Z,-285
2022-08-05T04:42:52.645Z,-287
2022-08-05T04:43:57.949Z,-286
2022-08-05T04:45:04.247Z,-287
2022-08-05T04:46:10.488Z,-285
2022-08-05T04:47:16.758Z,-286
2022-08-05T04:48:23.026Z,-286
2022-08-05T04:49:29.297Z,-287
2022-08-05T04:50:35.568Z,-287
2022-08-05T04:51:41.847Z,-287
2022-08-05T04:52:48.104Z,-287
2022-08-05T04:53:54.379Z,-286
2022-08-05T04:55:00.659Z,-287
2022-08-05T04:56:06.939Z,-287
2022-08-05T04:57:13.199Z,-287
2022-08-05T04:58:18.506Z,-287
2022-08-05T04:59:24.753Z,-287
2022-08-05T05:00:31.031Z,-287
2022-08-05T05:01:37.308Z,-287
2022-08-05T05:02:43.571Z,-288
2022-08-05T05:03:49.839Z,-288
2022-08-05T05:04:56.113Z,-287
2022-08-05T05:06:01.415Z,-287
2022-08-05T05:07:06.710Z,-288
2022-08-05T05:08:12.979Z,-287
2022-08-05T05:09:18.278Z,-288
2022-08-05T05:10:23.569Z,-289
2022-08-05T05:11:29.829Z,-290
2022-08-05T05:12:36.105Z,-287
2022-08-05T05:13:42.383Z,-288
2022-08-05T05:14:48.645Z,-290
2022-08-05T05:15:54.920Z,-289
2022-08-05T05:17:01.236Z,-290
2022-08-05T05:18:07.472Z,-288
2022-08-05T05:19:13.729Z,-290
2022-08-05T05:20:19.997Z,-289
2022-08-05T05:21:26.279Z,-291
2022-08-05T05:22:32.546Z,-290
2022-08-05T05:23:38.823Z,-290
2022-08-05T05:24:44.101Z,-291
2022-08-05T05:25:50.377Z,-290
2022-08-05T05:26:56.655Z,-290
2022-08-05T05:28:02.936Z,-289
2022-08-05T05:29:09.209Z,-290
2022-08-05T05:30:15.462Z,-291
2022-08-05T05:31:21.757Z,-290
2022-08-05T05:32:27.035Z,-291
2022-08-05T05:33:32.323Z,-290
2022-08-05T05:34:37.616Z,-290
2022-08-05T05:35:42.904Z,-290
2022-08-05T05:36:49.181Z,-290
2022-08-05T05:37:55.454Z,-290
2022-08-05T05:39:01.736Z,-292
2022-08-05T05:40:08.000Z,-292
2022-08-05T05:41:14.270Z,-292
2022-08-05T05:42:20.540Z,-292
2022-08-05T05:43:26.816Z,-293
2022-08-05T05:44:33.087Z,-290
2022-08-05T05:45:39.353Z,-293
2022-08-05T05:46:45.632Z,-292
2022-08-05T05:47:51.898Z,-294
2022-08-05T05:48:58.172Z,-293
2022-08-05T05:50:03.468Z,-293
2022-08-05T05:51:09.739Z,-294
2022-08-05T05:52:16.000Z,-293
2022-08-05T05:53:22.284Z,-294
2022-08-05T05:54:28.549Z,-294
2022-08-05T05:55:34.818Z,-294
2022-08-05T05:56:41.121Z,-294
2022-08-05T05:57:46.388Z,-295
2022-08-05T05:58:51.681Z,-294
2022-08-05T05:59:57.952Z,-293
2022-08-05T06:01:04.221Z,-295
2022-08-05T06:02:10.491Z,-296
2022-08-05T06:03:16.763Z,-296
2022-08-05T06:04:22.064Z,-296
2022-08-05T06:05:27.353Z,-300
2022-08-05T06:06:33.649Z,-296
2022-08-05T06:07:39.916Z,-299
2022-08-05T06:08:46.158Z,-297
2022-08-05T06:09:52.441Z,-296
2022-08-05T06:10:58.700Z,-298
2022-08-05T06:12:04.983Z,-298
2022-08-05T06:13:11.250Z,-296
2022-08-05T06:14:17.535Z,-297
2022-08-05T06:15:23.811Z,-297
2022-08-05T06:16:30.066Z,-297
2022-08-05T06:17:36.351Z,-297
2022-08-05T06:18:42.614Z,-300
2022-08-05T06:19:47.922Z,-299
2022-08-05T06:20:54.165Z,-299
2022-08-05T06:22:00.461Z,-299
2022-08-05T06:23:06.716Z,-298
2022-08-05T06:24:12.993Z,-299
2022-08-05T06:25:19.251Z,-300
2022-08-05T06:26:25.517Z,-301
2022-08-05T06:27:30.834Z,-300
2022-08-05T06:28:36.106Z,-300
2022-08-05T06:29:42.380Z,-302
2022-08-05T06:30:48.653Z,-300
2022-08-05T06:31:54.935Z,-300
2022-08-05T06:33:01.203Z,-300
2022-08-05T06:34:07.497Z,-302
2022-08-05T06:35:13.733Z,-300
2022-08-05T06:36:20.008Z,-301
2022-08-05T06:37:26.290Z,-300
2022-08-05T06:38:32.556Z,-300
2022-08-05T06:39:38.845Z,-301
2022-08-05T06:40:45.109Z,-302
2022-08-05T06:41:51.364Z,-300
2022-08-05T06:42:56.659Z,-300
2022-08-05T06:44:02.936Z,-302
2022-08-05T06:45:09.199Z,-301
2022-08-05T06:46:15.473Z,-303
2022-08-05T06:47:21.745Z,-303
2022-08-05T06:48:28.047Z,-304
2022-08-05T06:49:34.285Z,-303
2022-08-05T06:50:39.585Z,-303
2022-08-05T06:51:44.880Z,-305
2022-08-05T06:52:51.169Z,-304
2022-08-05T06:53:57.434Z,-303
2022-08-05T06:55:03.731Z,-304
2022-08-05T06:56:09.990Z,-303
2022-08-05T06:57:16.248Z,-304
2022-08-05T06:58:22.504Z,-303
2022-08-05T06:59:28.783Z,-306
2022-08-05T07:00:35.049Z,-305
2022-08-05T07:01:41.316Z,-305
2022-08-05T07:02:47.590Z,-303
2022-08-05T07:03:53.863Z,-306
2022-08-05T07:05:00.129Z,-306
2022-08-05T07:06:05.425Z,-307
2022-08-05T07:07:11.693Z,-306
2022-08-05T07:08:17.965Z,-307
2022-08-05T07:09:24.234Z,-307
2022-08-05T07:10:30.509Z,-306
2022-08-05T07:11:36.778Z,-307
2022-08-05T07:12:43.056Z,-307
2022-08-05T07:13:48.356Z,-308
2022-08-05T07:14:53.636Z,-308
2022-08-05T07:15:58.935Z,-309
2022-08-05T07:17:04.226Z,-309
2022-08-05T07:18:09.543Z,-309
2022-08-05T07:19:14.815Z,-309
2022-08-05T07:20:21.086Z,-311
2022-08-05T07:21:27.357Z,-310
2022-08-05T07:22:33.637Z,-309
2022-08-05T07:23:39.899Z,-310
2022-08-05T07:24:46.188Z,-310
2022-08-05T07:25:52.454Z,-309
2022-08-05T07:26:58.714Z,-310
2022-08-05T07:28:04.997Z,-311
2022-08-05T07:29:11.270Z,-310
2022-08-05T07:30:17.541Z,-310
2022-08-05T07:31:23.828Z,-310
2022-08-05T07:32:29.118Z,-310
2022-08-05T07:33:35.374Z,-311
2022-08-05T07:34:41.644Z,-310
2022-08-05T07:35:47.923Z,-312
2022-08-05T07:36:54.183Z,-312
2022-08-05T07:38:00.473Z,-312
2022-08-05T07:39:06.767Z,-312
2022-08-05T07:40:13.006Z,-312
2022-08-05T07:41:18.300Z,-312
2022-08-05T07:42:23.591Z,-312
2022-08-05T07:43:29.871Z,-313
2022-08-05T07:44:35.167Z,-312
2022-08-05T07:45:40.451Z,-312
2022-08-05T07:46:46.727Z,-314
2022-08-05T07:47:52.995Z,-312
2022-08-05T07:48:59.267Z,-312
2022-08-05T07:50:05.558Z,-313
2022-08-05T07:51:11.816Z,-315
2022-08-05T07:52:18.084Z,-315
2022-08-05T07:53:24.353Z,-316
2022-08-05T07:54:30.622Z,-315
2022-08-05T07:55:36.892Z,-316
2022-08-05T07:56:43.168Z,-317
2022-08-05T07:57:49.443Z,-316
2022-08-05T07:58:55.704Z,-317
2022-08-05T08:00:00.998Z,-318
2022-08-05T08:01:07.276Z,-318
2022-08-05T08:02:13.546Z,-318
2022-08-05T08:03:19.821Z,-320
2022-08-05T08:04:26.093Z,-319
2022-08-05T08:05:32.365Z,-320
2022-08-05T08:06:38.645Z,-318
2022-08-05T08:07:43.936Z,-321
2022-08-05T08:08:49.216Z,-319
2022-08-05T08:09:55.509Z,-320
2022-08-05T08:11:00.805Z,-321
2022-08-05T08:12:06.095Z,-319
2022-08-05T08:13:12.352Z,-319
2022-08-05T08:14:18.628Z,-321
2022-08-05T08:15:24.895Z,-321
2022-08-05T08:16:31.182Z,-322
2022-08-05T08:17:37.457Z,-321
2022-08-05T08:18:43.707Z,-323
2022-08-05T08:19:49.998Z,-325
2022-08-05T08:20:56.256Z,-324
2022-08-05T08:22:02.531Z,-323
2022-08-05T08:23:08.806Z,-326
2022-08-05T08:24:15.080Z,-324
2022-08-05T08:25:21.346Z,-325
2022-08-05T08:26:26.632Z,-325
2022-08-05T08:27:32.897Z,-325
2022-08-05T08:28:39.177Z,-326
2022-08-05T08:29:45.445Z,-327
2022-08-05T08:30:51.716Z,-326
2022-08-05T08:31:57.991Z,-327
2022-08-05T08:33:04.277Z,-326
2022-08-05T08:34:09.579Z,-328
2022-08-05T08:35:14.879Z,-328
2022-08-05T08:36:20.148Z,-328
2022-08-05T08:37:25.437Z,-329
2022-08-05T08:38:31.721Z,-331
2022-08-05T08:39:37.987Z,-328
2022-08-05T08:40:44.270Z,-330
2022-08-05T08:41:50.526Z,-331
2022-08-05T08:42:56.802Z,-330
2022-08-05T08:44:03.071Z,-330
2022-08-05T08:45:16.147Z,-331
2022-08-05T08:46:15.631Z,-331
2022-08-05T08:47:21.893Z,-331
2022-08-05T08:48:28.160Z,-332
2022-08-05T08:49:34.462Z,-333
2022-08-05T08:50:40.708Z,-331
2022-08-05T08:51:45.988Z,-331
2022-08-05T08:52:52.286Z,-333
2022-08-05T08:53:58.535Z,-334
2022-08-05T08:55:04.804Z,-332
2022-08-05T08:56:11.075Z,-334
2022-08-05T08:57:17.347Z,-335
2022-08-05T08:58:23.623Z,-334
2022-08-05T08:59:28.926Z,-336
2022-08-05T09:00:34.207Z,-338
2022-08-05T09:01:40.483Z,-336
2022-08-05T09:02:46.748Z,-337
2022-08-05T09:03:53.033Z,-337
2022-08-05T09:04:59.309Z,-338
2022-08-05T09:06:05.569Z,-338
2022-08-05T09:07:11.841Z,-339
2022-08-05T09:08:18.110Z,-338
2022-08-05T09:09:24.410Z,-339
2022-08-05T09:10:30.657Z,-340
2022-08-05T09:11:36.951Z,-340
2022-08-05T09:12:43.205Z,-339
2022-08-05T09:13:49.477Z,-340
2022-08-05T09:14:54.760Z,-340
2022-08-05T09:16:01.043Z,-340
2022-08-05T09:17:07.318Z,-340
2022-08-05T09:18:13.610Z,-340
2022-08-05T09:19:19.868Z,-339
2022-08-05T09:20:26.130Z,-340
2022-08-05T09:21:32.401Z,-339
2022-08-05T09:22:37.713Z,-340
2022-08-05T09:23:42.987Z,-339
2022-08-05T09:24:48.285Z,-339
2022-08-05T09:25:53.583Z,-341
2022-08-05T09:26:59.851Z,-340
2022-08-05T09:28:06.120Z,-337
2022-08-05T09:29:12.393Z,-340
2022-08-05T09:30:18.668Z,-339
2022-08-05T09:31:24.938Z,-340
2022-08-05T09:32:31.212Z,-340
2022-08-05T09:33:37.483Z,-339
2022-08-05T09:34:43.768Z,-340
2022-08-05T09:35:50.035Z,-340
2022-08-05T09:36:56.299Z,-340
2022-08-05T09:38:02.571Z,-339
2022-08-05T09:39:08.851Z,-341
2022-08-05T09:40:14.138Z,-340
2022-08-05T09:41:20.415Z,-343
2022-08-05T09:42:26.686Z,-341
2022-08-05T09:43:32.945Z,-340
2022-08-05T09:44:39.240Z,-340
2022-08-05T09:45:45.497Z,-342
2022-08-05T09:46:51.774Z,-342
2022-08-05T09:47:57.085Z,-340
2022-08-05T09:49:02.368Z,-342
2022-08-05T09:50:08.625Z,-341
2022-08-05T09:51:14.911Z,-338
2022-08-05T09:52:21.178Z,-343
2022-08-05T09:53:27.457Z,-342
2022-08-05T09:54:33.727Z,-342
2022-08-05T09:55:39.990Z,-343
2022-08-05T09:56:46.274Z,-343
2022-08-05T09:57:52.560Z,-346
2022-08-05T09:58:58.812Z,-344
2022-08-05T10:00:05.085Z,-344
2022-08-05T10:01:11.353Z,-345
2022-08-05T10:02:17.625Z,-344
2022-08-05T10:03:22.910Z,-346
2022-08-05T10:04:29.196Z,-346
2022-08-05T10:05:35.460Z,-347
2022-08-05T10:06:41.738Z,-348
2022-08-05T10:07:48.013Z,-346
2022-08-05T10:08:54.292Z,-349
2022-08-05T10:10:00.561Z,-349
2022-08-05T10:11:05.868Z,-349
2022-08-05T10:12:11.141Z,-350
2022-08-05T10:13:17.413Z,-350
2022-08-05T10:14:22.716Z,-350
2022-08-05T10:15:28.003Z,-350
2022-08-05T10:16:34.273Z,-350
2022-08-05T10:17:40.557Z,-351
2022-08-05T10:18:46.821Z,-353
2022-08-05T10:19:52.122Z,-352
2022-08-05T10:20:57.407Z,-353
2022-08-05T10:22:03.683Z,-353
2022-08-05T10:23:09.966Z,-354
2022-08-05T10:24:16.252Z,-353
2022-08-05T10:25:22.496Z,-353
2022-08-05T10:26:28.782Z,-353
2022-08-05T10:27:35.052Z,-356
2022-08-05T10:28:41.341Z,-354
2022-08-05T10:29:47.596Z,-354
2022-08-05T10:30:53.859Z,-355
2022-08-05T10:32:00.148Z,-356
2022-08-05T10:33:06.408Z,-356
2022-08-05T10:34:12.685Z,-356
2022-08-05T10:35:17.969Z,-358
2022-08-05T10:36:24.258Z,-359
2022-08-05T10:37:30.518Z,-359
2022-08-05T10:38:36.788Z,-359
2022-08-05T10:39:43.068Z,-359
2022-08-05T10:40:49.349Z,-360
2022-08-05T10:41:55.609Z,-359
2022-08-05T10:43:00.909Z,-360
2022-08-05T10:44:06.201Z,-362
2022-08-05T10:45:11.502Z,-362
2022-08-05T10:46:16.866Z,-362
2022-08-05T10:47:23.060Z,-362
2022-08-05T10:48:29.344Z,-364
2022-08-05T10:49:35.615Z,-364
2022-08-05T10:50:41.886Z,-365
2022-08-05T10:51:48.151Z,-365
2022-08-05T10:52:54.426Z,-366
2022-08-05T10:54:00.697Z,-367
2022-08-05T10:55:06.971Z,-368
2022-08-05T10:56:13.247Z,-368
2022-08-05T10:57:19.525Z,-369
2022-08-05T10:58:25.802Z,-369
2022-08-05T10:59:32.076Z,-370
2022-08-05T11:00:37.350Z,-368
2022-08-05T11:01:43.639Z,-372
2022-08-05T11:02:49.906Z,-373
2022-08-05T11:03:56.171Z,-373
2022-08-05T11:05:02.437Z,-374
2022-08-05T11:06:08.716Z,-375
2022-08-05T11:07:14.988Z,-375
2022-08-05T11:08:20.291Z,-375
2022-08-05T11:09:25.576Z,-376
2022-08-05T11:10:31.865Z,-376
2022-08-05T11:11:38.124Z,-377
2022-08-05T11:12:44.392Z,-377
2022-08-05T11:13:49.685Z,-378
2022-08-05T11:14:55.962Z,-379
2022-08-05T11:16:02.233Z,-378
2022-08-05T11:17:08.516Z,-378
2022-08-05T11:18:14.794Z,-378
2022-08-05T11:19:21.052Z,-378
2022-08-05T11:20:27.321Z,-379
2022-08-05T11:21:33.606Z,-379
2022-08-05T11:22:39.871Z,-380
2022-08-05T11:23:46.142Z,-372
2022-08-05T11:24:52.428Z,-379
2022-08-05T11:25:58.712Z,-378
2022-08-05T11:27:04.959Z,-380
2022-08-05T11:28:10.259Z,-380
2022-08-05T11:29:16.517Z,-378
2022-08-05T11:30:22.833Z,-380
2022-08-05T11:31:28.089Z,-378
2022-08-05T11:32:33.395Z,-380
2022-08-05T11:33:38.685Z,-379
2022-08-05T11:34:43.973Z,-381
2022-08-05T11:35:50.252Z,-381
2022-08-05T11:36:56.525Z,-382
2022-08-05T11:38:02.795Z,-384
2022-08-05T11:39:09.091Z,-384
2022-08-05T11:40:15.340Z,-384
2022-08-05T11:41:21.614Z,-384
2022-08-05T11:42:27.879Z,-382
2022-08-05T11:43:34.157Z,-386
2022-08-05T11:44:40.430Z,-385
2022-08-05T11:45:46.701Z,-387
2022-08-05T11:46:52.978Z,-384
2022-08-05T11:47:59.256Z,-387
2022-08-05T11:49:04.553Z,-388
2022-08-05T11:50:10.814Z,-390
2022-08-05T11:51:17.079Z,-390
2022-08-05T11:52:23.394Z,-390
2022-08-05T11:53:29.658Z,-393
2022-08-05T11:54:35.908Z,-393
2022-08-05T11:55:42.175Z,-392
2022-08-05T11:56:47.490Z,-392
2022-08-05T11:57:52.768Z,-393
2022-08-05T11:58:58.071Z,-392
2022-08-05T12:00:03.350Z,-393
2022-08-05T12:01:09.624Z,-393
2022-08-05T12:02:15.923Z,-393
2022-08-05T12:03:22.167Z,-393
2022-08-05T12:04:28.450Z,-393
2022-08-05T12:05:34.715Z,-395
2022-08-05T12:06:40.989Z,-395
2022-08-05T12:07:47.269Z,-393
2022-08-05T12:08:53.536Z,-394
2022-08-05T12:09:59.815Z,-394
2022-08-05T12:11:06.084Z,-396
2022-08-05T12:12:12.387Z,-396
2022-08-05T12:13:18.630Z,-395
2022-08-05T12:14:23.916Z,-396
2022-08-05T12:15:30.186Z,-397
2022-08-05T12:16:36.462Z,-396
2022-08-05T12:17:42.728Z,-396
2022-08-05T12:18:49.005Z,-397
2022-08-05T12:19:55.277Z,-396
2022-08-05T12:21:01.554Z,-398
2022-08-05T12:22:06.849Z,-398
2022-08-05T12:23:12.167Z,-400
2022-08-05T12:24:17.443Z,-399
2022-08-05T12:25:22.732Z,-399
2022-08-05T12:26:29.002Z,-401
2022-08-05T12:27:35.311Z,-403
2022-08-05T12:28:41.568Z,-401
2022-08-05T12:29:47.831Z,-401
2022-08-05T12:30:54.089Z,-401
2022-08-05T12:32:00.373Z,-404
2022-08-05T12:33:06.646Z,-404
2022-08-05T12:34:12.916Z,-402
2022-08-05T12:35:19.188Z,-403
2022-08-05T12:36:25.463Z,-404
2022-08-05T12:37:31.836Z,-403
2022-08-05T12:38:38.013Z,-405
2022-08-05T12:39:43.300Z,-406
2022-08-05T12:40:49.580Z,-406
2022-08-05T12:41:55.840Z,-406
2022-08-05T12:43:02.110Z,-406
2022-08-05T12:44:08.394Z,-407
2022-08-05T12:45:14.661Z,-406
2022-08-05T12:46:20.931Z,-409
2022-08-05T12:47:26.233Z,-407
2022-08-05T12:48:31.536Z,-408
2022-08-05T12:49:36.828Z,-409
2022-08-05T12:50:42.117Z,-407
2022-08-05T12:51:48.380Z,-409
2022-08-05T12:52:54.652Z,-409
2022-08-05T12:54:00.923Z,-409
2022-08-05T12:55:07.203Z,-410
2022-08-05T12:56:13.487Z,-410
2022-08-05T12:57:19.746Z,-411
2022-08-05T12:58:26.038Z,-411
2022-08-05T12:59:32.297Z,-410
2022-08-05T13:00:38.569Z,-411
2022-08-05T13:01:44.840Z,-412
2022-08-05T13:02:51.134Z,-412
2022-08-05T13:03:57.382Z,-413
2022-08-05T13:05:02.674Z,-412
2022-08-05T13:06:08.952Z,-413
2022-08-05T13:07:15.218Z,-414
2022-08-05T13:08:21.493Z,-412
2022-08-05T13:09:27.767Z,-414
2022-08-05T13:10:34.035Z,-415
2022-08-05T13:11:40.312Z,-415
2022-08-05T13:12:45.611Z,-416
2022-08-05T13:13:50.897Z,-416
2022-08-05T13:14:57.177Z,-416
2022-08-05T13:16:03.456Z,-418
2022-08-05T13:17:09.728Z,-417
2022-08-05T13:18:15.992Z,-418
2022-08-05T13:19:22.267Z,-420
2022-08-05T13:20:28.534Z,-420
2022-08-05T13:21:34.807Z,-421
2022-08-05T13:22:41.087Z,-422
2022-08-05T13:23:47.363Z,-421
2022-08-05T13:24:53.631Z,-421
2022-08-05T13:25:59.904Z,-422
2022-08-05T13:27:06.183Z,-421
2022-08-05T13:28:11.464Z,-422
2022-08-05T13:29:17.740Z,-421
2022-08-05T13:30:24.010Z,-423
2022-08-05T13:31:30.288Z,-422
2022-08-05T13:32:36.567Z,-422
2022-08-05T13:33:42.828Z,-422
2022-08-05T13:34:49.122Z,-421
2022-08-05T13:35:54.403Z,-424
2022-08-05T13:36:59.692Z,-424
2022-08-05T13:38:04.998Z,-424
2022-08-05T13:39:10.287Z,-424
2022-08-05T13:40:16.561Z,-425
2022-08-05T13:41:21.862Z,-426
2022-08-05T13:42:27.150Z,-427
2022-08-05T13:43:33.418Z,-428
2022-08-05T13:44:39.716Z,-426
2022-08-05T13:45:45.964Z,-428
2022-08-05T13:46:52.247Z,-428
2022-08-05T13:47:58.525Z,-428
2022-08-05T13:49:04.781Z,-428
2022-08-05T13:50:11.052Z,-430
2022-08-05T13:51:17.319Z,-429
2022-08-05T13:52:23.600Z,-428
2022-08-05T13:53:29.875Z,-431
2022-08-05T13:54:36.150Z,-430
2022-08-05T13:55:42.417Z,-431
2022-08-05T13:56:47.723Z,-431
2022-08-05T13:57:53.979Z,-431
2022-08-05T13:59:00.267Z,-432
2022-08-05T14:00:06.531Z,-432
2022-08-05T14:01:12.803Z,-434
2022-08-05T14:02:19.080Z,-433
2022-08-05T14:03:25.353Z,-435
2022-08-05T14:04:30.653Z,-434
2022-08-05T14:05:35.941Z,-436
2022-08-05T14:06:41.258Z,-437
2022-08-05T14:07:46.535Z,-439
2022-08-05T14:08:52.803Z,-437
2022-08-05T14:09:59.075Z,-437
2022-08-05T14:11:05.347Z,-437
2022-08-05T14:12:11.617Z,-437
2022-08-05T14:13:17.902Z,-437
2022-08-05T14:14:24.236Z,-439
2022-08-05T14:15:30.437Z,-438
2022-08-05T14:16:36.727Z,-438
2022-08-05T14:17:42.986Z,-437
2022-08-05T14:18:49.273Z,-440
2022-08-05T14:19:55.543Z,-440
2022-08-05T14:21:01.815Z,-440
2022-08-05T14:22:07.119Z,-440
2022-08-05T14:23:13.379Z,-440
2022-08-05T14:24:19.655Z,-441
2022-08-05T14:25:25.912Z,-440
2022-08-05T14:26:32.186Z,-443
2022-08-05T14:27:38.463Z,-443
2022-08-05T14:28:44.732Z,-444
2022-08-05T14:29:50.037Z,-444
2022-08-05T14:30:55.333Z,-445
2022-08-05T14:32:01.596Z,-446
2022-08-05T14:33:07.885Z,-445
2022-08-05T14:34:14.174Z,-446
2022-08-05T14:35:20.409Z,-447
2022-08-05T14:36:26.748Z,-448
2022-08-05T14:37:32.963Z,-449
2022-08-05T14:38:39.246Z,-449
2022-08-05T14:39:45.532Z,-450